Terminal Aerodrome Forecast
Issued by NWS

Home | Current Version | Previous Version | Text Only | Print | Product List | Glossary On
Versions: 1 2 3 4 5 6 7 8 9 10 11 12 13 14 15 16 17 18 19 20 21 22 23 24 25 26 27 28
000
FTUS41 KPBZ 132320
TAFDUJ
TAF
KDUJ 132320Z 1400/1424 18006KT 3SM -SN OVC015
     FM140100 17006KT 1SM -SN OVC008
     FM140800 03004KT 2SM -SN OVC012
     FM141200 34008KT P6SM VCSH BKN015
     FM141500 32008KT P6SM BKN025
     FM142200 29006KT P6SM BKN035=

USA.gov is the U.S. government's official web portal to all federal, state and local government web resources and services.